sensor_id;sensor_type;location;lat;lon;timestamp;P1;durP1;ratioP1;P2;durP2;ratioP2
30249;SDS011;17064;47.974;13.826;2022-12-18T00:04:06;89.28;;;27.55;;
30249;SDS011;17064;47.974;13.826;2022-12-18T00:09:15;72.30;;;24.20;;
30249;SDS011;17064;47.974;13.826;2022-12-18T00:14:16;88.97;;;28.50;;
30249;SDS011;17064;47.974;13.826;2022-12-18T00:19:17;74.88;;;24.15;;
30249;SDS011;17064;47.974;13.826;2022-12-18T00:24:17;70.50;;;23.23;;
30249;SDS011;17064;47.974;13.826;2022-12-18T00:29:18;65.97;;;22.98;;
30249;SDS011;17064;47.974;13.826;2022-12-18T00:34:19;81.97;;;27.40;;
30249;SDS011;17064;47.974;13.826;2022-12-18T00:39:20;76.18;;;25.45;;
30249;SDS011;17064;47.974;13.826;2022-12-18T00:44:21;80.05;;;26.20;;
30249;SDS011;17064;47.974;13.826;2022-12-18T00:49:21;63.80;;;22.35;;
30249;SDS011;17064;47.974;13.826;2022-12-18T00:54:22;70.78;;;23.65;;
30249;SDS011;17064;47.974;13.826;2022-12-18T00:59:23;69.60;;;22.08;;
30249;SDS011;17064;47.974;13.826;2022-12-18T01:04:23;58.88;;;20.45;;
30249;SDS011;17064;47.974;13.826;2022-12-18T01:09:24;67.63;;;19.92;;
30249;SDS011;17064;47.974;13.826;2022-12-18T01:14:25;67.53;;;22.77;;
30249;SDS011;17064;47.974;13.826;2022-12-18T01:19:25;52.47;;;19.40;;
30249;SDS011;17064;47.974;13.826;2022-12-18T01:24:26;55.13;;;18.02;;
30249;SDS011;17064;47.974;13.826;2022-12-18T01:29:27;66.40;;;18.15;;
30249;SDS011;17064;47.974;13.826;2022-12-18T01:34:27;61.92;;;18.08;;
30249;SDS011;17064;47.974;13.826;2022-12-18T01:39:28;65.57;;;18.95;;
30249;SDS011;17064;47.974;13.826;2022-12-18T01:55:26;56.88;;;17.10;;
30249;SDS011;17064;47.974;13.826;2022-12-18T02:00:30;51.67;;;18.27;;
30249;SDS011;17064;47.974;13.826;2022-12-18T02:05:37;101.05;;;21.17;;
30249;SDS011;17064;47.974;13.826;2022-12-18T02:10:43;48.55;;;17.42;;
30249;SDS011;17064;47.974;13.826;2022-12-18T02:20:59;51.50;;;17.17;;
30249;SDS011;17064;47.974;13.826;2022-12-18T02:26:17;51.70;;;17.38;;
30249;SDS011;17064;47.974;13.826;2022-12-18T02:31:27;48.40;;;17.80;;
30249;SDS011;17064;47.974;13.826;2022-12-18T02:36:31;60.97;;;17.92;;
30249;SDS011;17064;47.974;13.826;2022-12-18T02:41:34;47.50;;;15.93;;
30249;SDS011;17064;47.974;13.826;2022-12-18T02:46:40;42.20;;;15.68;;
30249;SDS011;17064;47.974;13.826;2022-12-18T02:52:07;48.58;;;16.02;;
30249;SDS011;17064;47.974;13.826;2022-12-18T02:57:53;53.95;;;16.58;;
30249;SDS011;17064;47.974;13.826;2022-12-18T03:02:48;46.90;;;16.05;;
30249;SDS011;17064;47.974;13.826;2022-12-18T03:13:06;42.03;;;15.68;;
30249;SDS011;17064;47.974;13.826;2022-12-18T03:18:13;40.90;;;14.10;;
30249;SDS011;17064;47.974;13.826;2022-12-18T03:23:32;39.35;;;15.13;;
30249;SDS011;17064;47.974;13.826;2022-12-18T03:28:38;48.97;;;14.75;;
30249;SDS011;17064;47.974;13.826;2022-12-18T03:33:47;37.05;;;13.70;;
30249;SDS011;17064;47.974;13.826;2022-12-18T03:38:55;48.40;;;15.23;;
30249;SDS011;17064;47.974;13.826;2022-12-18T03:44:02;33.20;;;11.85;;
30249;SDS011;17064;47.974;13.826;2022-12-18T03:49:09;44.47;;;13.30;;
30249;SDS011;17064;47.974;13.826;2022-12-18T03:54:10;36.22;;;12.73;;
30249;SDS011;17064;47.974;13.826;2022-12-18T03:59:12;36.60;;;11.82;;
30249;SDS011;17064;47.974;13.826;2022-12-18T04:04:15;34.00;;;12.77;;
30249;SDS011;17064;47.974;13.826;2022-12-18T04:09:18;30.90;;;9.55;;
30249;SDS011;17064;47.974;13.826;2022-12-18T04:14:20;69.60;;;20.58;;
30249;SDS011;17064;47.974;13.826;2022-12-18T04:19:21;59.25;;;16.60;;
30249;SDS011;17064;47.974;13.826;2022-12-18T04:24:21;44.47;;;12.20;;
30249;SDS011;17064;47.974;13.826;2022-12-18T04:29:22;39.65;;;12.55;;
30249;SDS011;17064;47.974;13.826;2022-12-18T04:34:23;36.70;;;12.77;;
30249;SDS011;17064;47.974;13.826;2022-12-18T04:39:24;34.42;;;11.18;;
30249;SDS011;17064;47.974;13.826;2022-12-18T04:44:24;38.97;;;13.23;;
30249;SDS011;17064;47.974;13.826;2022-12-18T04:49:25;27.60;;;11.07;;
30249;SDS011;17064;47.974;13.826;2022-12-18T04:54:26;44.17;;;12.07;;
30249;SDS011;17064;47.974;13.826;2022-12-18T04:59:26;38.77;;;12.27;;
30249;SDS011;17064;47.974;13.826;2022-12-18T05:04:27;34.30;;;12.03;;
30249;SDS011;17064;47.974;13.826;2022-12-18T05:09:28;38.97;;;11.70;;
30249;SDS011;17064;47.974;13.826;2022-12-18T05:14:28;39.97;;;12.40;;
30249;SDS011;17064;47.974;13.826;2022-12-18T05:19:29;31.60;;;11.77;;
30249;SDS011;17064;47.974;13.826;2022-12-18T05:24:30;39.17;;;12.07;;
30249;SDS011;17064;47.974;13.826;2022-12-18T05:29:30;38.05;;;13.07;;
30249;SDS011;17064;47.974;13.826;2022-12-18T05:34:31;42.22;;;13.70;;
30249;SDS011;17064;47.974;13.826;2022-12-18T05:39:33;53.00;;;14.80;;
30249;SDS011;17064;47.974;13.826;2022-12-18T05:44:34;35.78;;;13.38;;
30249;SDS011;17064;47.974;13.826;2022-12-18T05:49:34;44.95;;;13.80;;
30249;SDS011;17064;47.974;13.826;2022-12-18T05:54:35;45.57;;;14.43;;
30249;SDS011;17064;47.974;13.826;2022-12-18T05:59:36;41.65;;;15.18;;
30249;SDS011;17064;47.974;13.826;2022-12-18T06:04:36;42.85;;;15.23;;
30249;SDS011;17064;47.974;13.826;2022-12-18T06:09:37;50.30;;;16.08;;
30249;SDS011;17064;47.974;13.826;2022-12-18T06:14:38;58.88;;;16.80;;
30249;SDS011;17064;47.974;13.826;2022-12-18T06:19:39;49.92;;;16.67;;
30249;SDS011;17064;47.974;13.826;2022-12-18T06:24:39;49.28;;;17.10;;
30249;SDS011;17064;47.974;13.826;2022-12-18T06:29:40;58.88;;;16.20;;
30249;SDS011;17064;47.974;13.826;2022-12-18T06:34:41;49.78;;;15.90;;
30249;SDS011;17064;47.974;13.826;2022-12-18T06:39:42;54.10;;;17.48;;
30249;SDS011;17064;47.974;13.826;2022-12-18T06:44:42;64.13;;;16.52;;
30249;SDS011;17064;47.974;13.826;2022-12-18T06:49:43;46.60;;;15.63;;
30249;SDS011;17064;47.974;13.826;2022-12-18T06:54:44;49.33;;;14.50;;
30249;SDS011;17064;47.974;13.826;2022-12-18T06:59:45;41.42;;;15.05;;
30249;SDS011;17064;47.974;13.826;2022-12-18T07:04:45;42.30;;;14.48;;
30249;SDS011;17064;47.974;13.826;2022-12-18T07:09:46;37.58;;;13.75;;
30249;SDS011;17064;47.974;13.826;2022-12-18T07:14:47;28.27;;;10.75;;
30249;SDS011;17064;47.974;13.826;2022-12-18T07:19:47;32.45;;;12.02;;
30249;SDS011;17064;47.974;13.826;2022-12-18T07:24:48;33.30;;;11.82;;
30249;SDS011;17064;47.974;13.826;2022-12-18T07:29:49;27.77;;;11.00;;
30249;SDS011;17064;47.974;13.826;2022-12-18T07:34:49;34.05;;;12.90;;
30249;SDS011;17064;47.974;13.826;2022-12-18T07:39:50;32.20;;;12.52;;
30249;SDS011;17064;47.974;13.826;2022-12-18T07:44:51;25.27;;;10.90;;
30249;SDS011;17064;47.974;13.826;2022-12-18T07:49:51;30.08;;;11.55;;
30249;SDS011;17064;47.974;13.826;2022-12-18T07:54:52;29.13;;;11.13;;
30249;SDS011;17064;47.974;13.826;2022-12-18T07:59:53;26.35;;;10.65;;
30249;SDS011;17064;47.974;13.826;2022-12-18T08:04:53;28.65;;;11.95;;
30249;SDS011;17064;47.974;13.826;2022-12-18T08:09:54;29.45;;;12.40;;
30249;SDS011;17064;47.974;13.826;2022-12-18T08:14:55;37.70;;;12.82;;
30249;SDS011;17064;47.974;13.826;2022-12-18T08:19:55;31.55;;;12.20;;
30249;SDS011;17064;47.974;13.826;2022-12-18T08:24:56;38.58;;;13.90;;
30249;SDS011;17064;47.974;13.826;2022-12-18T08:29:57;42.83;;;14.90;;
30249;SDS011;17064;47.974;13.826;2022-12-18T08:34:58;36.13;;;14.38;;
30249;SDS011;17064;47.974;13.826;2022-12-18T08:39:59;36.20;;;14.23;;
30249;SDS011;17064;47.974;13.826;2022-12-18T08:45:00;40.60;;;14.52;;
30249;SDS011;17064;47.974;13.826;2022-12-18T08:50:02;44.55;;;16.35;;
30249;SDS011;17064;47.974;13.826;2022-12-18T08:55:03;33.58;;;13.55;;
30249;SDS011;17064;47.974;13.826;2022-12-18T09:00:04;40.58;;;14.90;;
30249;SDS011;17064;47.974;13.826;2022-12-18T09:05:06;33.03;;;12.63;;
30249;SDS011;17064;47.974;13.826;2022-12-18T09:10:07;39.67;;;14.38;;
30249;SDS011;17064;47.974;13.826;2022-12-18T09:15:08;40.97;;;14.55;;
30249;SDS011;17064;47.974;13.826;2022-12-18T09:20:09;41.88;;;15.00;;
30249;SDS011;17064;47.974;13.826;2022-12-18T09:25:10;42.47;;;14.95;;
30249;SDS011;17064;47.974;13.826;2022-12-18T09:30:10;42.25;;;15.38;;
30249;SDS011;17064;47.974;13.826;2022-12-18T09:35:14;42.53;;;16.88;;
30249;SDS011;17064;47.974;13.826;2022-12-18T09:40:19;37.10;;;14.88;;
30249;SDS011;17064;47.974;13.826;2022-12-18T09:45:22;38.67;;;15.85;;
30249;SDS011;17064;47.974;13.826;2022-12-18T09:50:32;30.02;;;13.10;;
30249;SDS011;17064;47.974;13.826;2022-12-18T09:55:39;38.13;;;14.23;;
30249;SDS011;17064;47.974;13.826;2022-12-18T10:00:42;36.22;;;12.13;;
30249;SDS011;17064;47.974;13.826;2022-12-18T10:22:14;34.28;;;13.93;;
30249;SDS011;17064;47.974;13.826;2022-12-18T10:27:36;38.58;;;13.25;;
30249;SDS011;17064;47.974;13.826;2022-12-18T10:32:37;31.10;;;13.90;;
30249;SDS011;17064;47.974;13.826;2022-12-18T10:37:38;31.58;;;12.23;;
30249;SDS011;17064;47.974;13.826;2022-12-18T10:43:13;30.38;;;12.50;;
30249;SDS011;17064;47.974;13.826;2022-12-18T10:48:21;25.58;;;11.27;;
30249;SDS011;17064;47.974;13.826;2022-12-18T10:53:24;38.28;;;14.18;;
30249;SDS011;17064;47.974;13.826;2022-12-18T10:58:29;27.40;;;11.77;;
30249;SDS011;17064;47.974;13.826;2022-12-18T11:09:00;29.30;;;11.95;;
30249;SDS011;17064;47.974;13.826;2022-12-18T11:14:06;30.58;;;11.32;;
30249;SDS011;17064;47.974;13.826;2022-12-18T11:24:39;30.77;;;11.90;;
30249;SDS011;17064;47.974;13.826;2022-12-18T11:29:40;28.88;;;11.82;;
30249;SDS011;17064;47.974;13.826;2022-12-18T11:34:42;30.33;;;11.27;;
30249;SDS011;17064;47.974;13.826;2022-12-18T11:40:22;29.05;;;11.63;;
30249;SDS011;17064;47.974;13.826;2022-12-18T11:50:32;33.25;;;12.15;;
30249;SDS011;17064;47.974;13.826;2022-12-18T12:16:40;38.33;;;14.32;;
30249;SDS011;17064;47.974;13.826;2022-12-18T12:27:28;40.25;;;15.13;;
30249;SDS011;17064;47.974;13.826;2022-12-18T12:32:37;42.22;;;14.20;;
30249;SDS011;17064;47.974;13.826;2022-12-18T12:53:58;40.65;;;15.68;;
30249;SDS011;17064;47.974;13.826;2022-12-18T13:20:44;40.10;;;15.52;;
30249;SDS011;17064;47.974;13.826;2022-12-18T13:25:47;47.40;;;18.88;;
30249;SDS011;17064;47.974;13.826;2022-12-18T13:30:49;42.05;;;14.55;;
30249;SDS011;17064;47.974;13.826;2022-12-18T13:35:52;40.70;;;14.25;;
30249;SDS011;17064;47.974;13.826;2022-12-18T13:40:54;40.38;;;13.70;;
30249;SDS011;17064;47.974;13.826;2022-12-18T13:51:18;51.50;;;16.33;;
30249;SDS011;17064;47.974;13.826;2022-12-18T13:56:27;40.75;;;13.07;;
30249;SDS011;17064;47.974;13.826;2022-12-18T14:01:30;47.17;;;17.05;;
30249;SDS011;17064;47.974;13.826;2022-12-18T14:06:31;39.15;;;15.85;;
30249;SDS011;17064;47.974;13.826;2022-12-18T14:16:41;38.97;;;14.63;;
30249;SDS011;17064;47.974;13.826;2022-12-18T14:21:45;38.67;;;15.45;;
30249;SDS011;17064;47.974;13.826;2022-12-18T14:26:50;41.53;;;14.82;;
30249;SDS011;17064;47.974;13.826;2022-12-18T14:32:04;37.53;;;14.35;;
30249;SDS011;17064;47.974;13.826;2022-12-18T14:37:15;38.03;;;14.47;;
30249;SDS011;17064;47.974;13.826;2022-12-18T14:42:30;38.70;;;14.18;;
30249;SDS011;17064;47.974;13.826;2022-12-18T14:47:32;37.13;;;14.52;;
30249;SDS011;17064;47.974;13.826;2022-12-18T14:52:33;30.90;;;13.40;;
30249;SDS011;17064;47.974;13.826;2022-12-18T14:57:36;37.83;;;14.55;;
30249;SDS011;17064;47.974;13.826;2022-12-18T15:02:41;32.05;;;13.73;;
30249;SDS011;17064;47.974;13.826;2022-12-18T15:07:44;34.95;;;13.93;;
30249;SDS011;17064;47.974;13.826;2022-12-18T15:12:49;35.03;;;13.82;;
30249;SDS011;17064;47.974;13.826;2022-12-18T15:23:16;36.08;;;13.43;;
30249;SDS011;17064;47.974;13.826;2022-12-18T15:34:00;37.30;;;14.77;;
30249;SDS011;17064;47.974;13.826;2022-12-18T15:39:10;38.05;;;15.35;;
30249;SDS011;17064;47.974;13.826;2022-12-18T15:44:20;39.45;;;15.88;;
30249;SDS011;17064;47.974;13.826;2022-12-18T15:49:23;39.30;;;15.18;;
30249;SDS011;17064;47.974;13.826;2022-12-18T15:54:24;41.05;;;18.23;;
30249;SDS011;17064;47.974;13.826;2022-12-18T15:59:43;50.45;;;16.02;;
30249;SDS011;17064;47.974;13.826;2022-12-18T16:04:45;54.05;;;19.90;;
30249;SDS011;17064;47.974;13.826;2022-12-18T16:09:46;47.13;;;17.52;;
30249;SDS011;17064;47.974;13.826;2022-12-18T16:14:47;52.10;;;18.83;;
30249;SDS011;17064;47.974;13.826;2022-12-18T16:19:48;45.90;;;18.02;;
30249;SDS011;17064;47.974;13.826;2022-12-18T16:24:50;54.05;;;19.23;;
30249;SDS011;17064;47.974;13.826;2022-12-18T16:29:52;46.28;;;19.50;;
30249;SDS011;17064;47.974;13.826;2022-12-18T16:34:53;48.25;;;17.30;;
30249;SDS011;17064;47.974;13.826;2022-12-18T16:40:01;52.40;;;19.17;;
30249;SDS011;17064;47.974;13.826;2022-12-18T16:45:03;52.35;;;19.10;;
30249;SDS011;17064;47.974;13.826;2022-12-18T16:50:06;53.63;;;19.70;;
30249;SDS011;17064;47.974;13.826;2022-12-18T16:55:08;45.37;;;17.83;;
30249;SDS011;17064;47.974;13.826;2022-12-18T17:00:09;48.55;;;17.45;;
30249;SDS011;17064;47.974;13.826;2022-12-18T17:05:11;52.58;;;19.55;;
30249;SDS011;17064;47.974;13.826;2022-12-18T17:10:12;59.70;;;19.67;;
30249;SDS011;17064;47.974;13.826;2022-12-18T17:15:13;47.78;;;18.15;;
30249;SDS011;17064;47.974;13.826;2022-12-18T17:20:15;55.53;;;20.63;;
30249;SDS011;17064;47.974;13.826;2022-12-18T17:25:16;59.92;;;21.90;;
30249;SDS011;17064;47.974;13.826;2022-12-18T17:30:17;56.45;;;20.98;;
30249;SDS011;17064;47.974;13.826;2022-12-18T17:35:18;47.45;;;18.70;;
30249;SDS011;17064;47.974;13.826;2022-12-18T17:40:19;58.15;;;21.48;;
30249;SDS011;17064;47.974;13.826;2022-12-18T17:45:22;62.25;;;20.08;;
30249;SDS011;17064;47.974;13.826;2022-12-18T17:50:23;58.17;;;22.07;;
30249;SDS011;17064;47.974;13.826;2022-12-18T17:55:24;60.90;;;21.35;;
30249;SDS011;17064;47.974;13.826;2022-12-18T18:00:27;56.00;;;21.00;;
30249;SDS011;17064;47.974;13.826;2022-12-18T18:05:28;54.72;;;20.52;;
30249;SDS011;17064;47.974;13.826;2022-12-18T18:10:29;59.28;;;21.85;;
30249;SDS011;17064;47.974;13.826;2022-12-18T18:15:32;63.73;;;20.63;;
30249;SDS011;17064;47.974;13.826;2022-12-18T18:20:37;66.20;;;21.88;;
30249;SDS011;17064;47.974;13.826;2022-12-18T18:25:41;60.55;;;21.23;;
30249;SDS011;17064;47.974;13.826;2022-12-18T18:30:44;58.08;;;21.25;;
30249;SDS011;17064;47.974;13.826;2022-12-18T18:35:45;54.92;;;20.85;;
30249;SDS011;17064;47.974;13.826;2022-12-18T18:40:46;61.65;;;20.58;;
30249;SDS011;17064;47.974;13.826;2022-12-18T18:45:47;59.78;;;20.80;;
30249;SDS011;17064;47.974;13.826;2022-12-18T18:50:58;62.60;;;21.92;;
30249;SDS011;17064;47.974;13.826;2022-12-18T18:56:01;57.80;;;20.67;;
30249;SDS011;17064;47.974;13.826;2022-12-18T19:01:05;59.40;;;20.67;;
30249;SDS011;17064;47.974;13.826;2022-12-18T19:06:10;62.10;;;22.63;;
30249;SDS011;17064;47.974;13.826;2022-12-18T19:11:19;55.88;;;21.00;;
30249;SDS011;17064;47.974;13.826;2022-12-18T19:16:58;62.30;;;20.55;;
30249;SDS011;17064;47.974;13.826;2022-12-18T19:21:59;56.08;;;20.90;;
30249;SDS011;17064;47.974;13.826;2022-12-18T19:27:00;61.03;;;21.80;;
30249;SDS011;17064;47.974;13.826;2022-12-18T19:32:01;57.00;;;20.20;;
30249;SDS011;17064;47.974;13.826;2022-12-18T19:37:02;58.58;;;21.42;;
30249;SDS011;17064;47.974;13.826;2022-12-18T19:42:04;60.20;;;20.08;;
30249;SDS011;17064;47.974;13.826;2022-12-18T19:47:05;65.00;;;22.38;;
30249;SDS011;17064;47.974;13.826;2022-12-18T19:52:06;60.42;;;21.60;;
30249;SDS011;17064;47.974;13.826;2022-12-18T19:57:07;59.83;;;20.30;;
30249;SDS011;17064;47.974;13.826;2022-12-18T20:02:13;55.67;;;20.30;;
30249;SDS011;17064;47.974;13.826;2022-12-18T20:07:14;59.60;;;19.88;;
30249;SDS011;17064;47.974;13.826;2022-12-18T20:12:15;62.55;;;21.10;;
30249;SDS011;17064;47.974;13.826;2022-12-18T20:17:17;68.05;;;21.27;;
30249;SDS011;17064;47.974;13.826;2022-12-18T20:22:19;52.88;;;21.13;;
30249;SDS011;17064;47.974;13.826;2022-12-18T20:27:20;58.45;;;19.75;;
30249;SDS011;17064;47.974;13.826;2022-12-18T20:32:22;67.60;;;19.13;;
30249;SDS011;17064;47.974;13.826;2022-12-18T20:37:24;59.08;;;20.48;;
30249;SDS011;17064;47.974;13.826;2022-12-18T20:42:25;56.45;;;18.73;;
30249;SDS011;17064;47.974;13.826;2022-12-18T20:47:26;67.03;;;22.17;;
30249;SDS011;17064;47.974;13.826;2022-12-18T20:52:26;57.72;;;20.80;;
30249;SDS011;17064;47.974;13.826;2022-12-18T20:57:27;64.43;;;21.17;;
30249;SDS011;17064;47.974;13.826;2022-12-18T21:02:28;69.93;;;22.52;;
30249;SDS011;17064;47.974;13.826;2022-12-18T21:07:29;55.42;;;20.00;;
30249;SDS011;17064;47.974;13.826;2022-12-18T21:12:30;60.67;;;20.65;;
30249;SDS011;17064;47.974;13.826;2022-12-18T21:17:33;60.03;;;21.90;;
30249;SDS011;17064;47.974;13.826;2022-12-18T21:22:35;56.22;;;19.75;;
30249;SDS011;17064;47.974;13.826;2022-12-18T21:27:35;63.47;;;20.35;;
30249;SDS011;17064;47.974;13.826;2022-12-18T21:32:36;61.90;;;21.13;;
30249;SDS011;17064;47.974;13.826;2022-12-18T21:37:37;60.80;;;20.85;;
30249;SDS011;17064;47.974;13.826;2022-12-18T21:42:37;57.25;;;20.67;;
30249;SDS011;17064;47.974;13.826;2022-12-18T21:47:57;57.00;;;20.40;;
30249;SDS011;17064;47.974;13.826;2022-12-18T21:52:57;51.05;;;19.13;;
30249;SDS011;17064;47.974;13.826;2022-12-18T21:57:58;62.92;;;21.70;;
30249;SDS011;17064;47.974;13.826;2022-12-18T22:02:59;67.32;;;19.95;;
30249;SDS011;17064;47.974;13.826;2022-12-18T22:07:59;60.67;;;20.83;;
30249;SDS011;17064;47.974;13.826;2022-12-18T22:13:00;64.60;;;21.42;;
30249;SDS011;17064;47.974;13.826;2022-12-18T22:18:01;60.92;;;19.83;;
30249;SDS011;17064;47.974;13.826;2022-12-18T22:23:02;50.70;;;19.00;;
30249;SDS011;17064;47.974;13.826;2022-12-18T22:28:03;64.10;;;20.52;;
30249;SDS011;17064;47.974;13.826;2022-12-18T22:33:22;56.58;;;18.98;;
30249;SDS011;17064;47.974;13.826;2022-12-18T22:38:23;56.35;;;18.88;;
30249;SDS011;17064;47.974;13.826;2022-12-18T22:43:24;53.17;;;18.23;;
30249;SDS011;17064;47.974;13.826;2022-12-18T22:48:25;57.25;;;19.88;;
30249;SDS011;17064;47.974;13.826;2022-12-18T22:53:26;57.38;;;20.88;;
30249;SDS011;17064;47.974;13.826;2022-12-18T22:58:26;58.90;;;19.02;;
30249;SDS011;17064;47.974;13.826;2022-12-18T23:03:27;59.47;;;19.15;;
30249;SDS011;17064;47.974;13.826;2022-12-18T23:08:28;58.08;;;18.63;;
30249;SDS011;17064;47.974;13.826;2022-12-18T23:13:29;55.22;;;18.42;;
30249;SDS011;17064;47.974;13.826;2022-12-18T23:18:29;57.60;;;19.42;;
30249;SDS011;17064;47.974;13.826;2022-12-18T23:23:31;58.58;;;18.60;;
30249;SDS011;17064;47.974;13.826;2022-12-18T23:33:34;54.35;;;17.73;;
30249;SDS011;17064;47.974;13.826;2022-12-18T23:38:35;62.03;;;18.77;;
30249;SDS011;17064;47.974;13.826;2022-12-18T23:43:36;68.28;;;21.05;;
30249;SDS011;17064;47.974;13.826;2022-12-18T23:48:37;49.00;;;17.40;;
30249;SDS011;17064;47.974;13.826;2022-12-18T23:53:39;60.13;;;20.27;;
30249;SDS011;17064;47.974;13.826;2022-12-18T23:58:40;59.08;;;19.88;;
